createdAt,value
2023-01-08T00:00:46.293Z,20.67
2023-01-08T00:01:50.303Z,21.83
2023-01-08T00:02:52.414Z,27.85
2023-01-08T00:03:54.565Z,27.17
2023-01-08T00:04:56.530Z,25.83
2023-01-08T00:06:02.302Z,22.83
2023-01-08T00:07:04.207Z,23.88
2023-01-08T00:08:08.554Z,24.40
2023-01-08T00:09:11.783Z,20.60
2023-01-08T00:10:13.636Z,27.58
2023-01-08T00:11:16.163Z,20.63
2023-01-08T00:12:17.990Z,29.88
2023-01-08T00:13:19.795Z,26.98
2023-01-08T00:14:21.687Z,24.35
2023-01-08T00:15:23.635Z,26.73
2023-01-08T00:16:25.564Z,30.80
2023-01-08T00:17:27.383Z,25.15
2023-01-08T00:18:29.594Z,19.42
2023-01-08T00:19:31.652Z,18.70
2023-01-08T00:20:33.872Z,20.50
2023-01-08T00:21:35.645Z,22.83
2023-01-08T00:22:40.246Z,25.42
2023-01-08T00:23:42.142Z,18.33
2023-01-08T00:24:43.904Z,24.65
2023-01-08T00:25:46.542Z,17.40
2023-01-08T00:26:48.463Z,22.42
2023-01-08T00:27:50.381Z,20.02
2023-01-08T00:30:56.086Z,18.40
2023-01-08T01:31:07.081Z,20.55
2023-01-08T01:32:09.219Z,20.73
2023-01-08T01:33:11.141Z,20.90
2023-01-08T01:34:13.037Z,20.40
2023-01-08T01:35:14.866Z,20.23
2023-01-08T01:36:18.248Z,22.88
2023-01-08T01:37:20.172Z,22.45
2023-01-08T01:38:21.894Z,22.17
2023-01-08T01:39:23.721Z,20.50
2023-01-08T01:40:25.648Z,20.58
2023-01-08T01:41:31.723Z,19.48
2023-01-08T01:42:39.783Z,25.15
2023-01-08T01:43:43.563Z,21.27
2023-01-08T01:44:46.230Z,23.77
2023-01-08T01:45:48.083Z,19.92
2023-01-08T01:46:50.374Z,22.17
2023-01-08T01:48:18.179Z,18.50
2023-01-08T01:49:23.172Z,19.00
2023-01-08T01:50:47.370Z,20.75
2023-01-08T01:51:53.486Z,23.67
2023-01-08T01:53:13.221Z,21.83
2023-01-08T01:54:16.777Z,18.25
2023-01-08T01:55:19.145Z,20.05
2023-01-08T01:56:21.405Z,20.58
2023-01-08T01:57:25.064Z,22.55
2023-01-08T01:58:29.784Z,18.30
2023-01-08T01:59:31.663Z,18.20
2023-01-08T02:00:35.141Z,17.95
2023-01-08T02:01:37.958Z,18.52
2023-01-08T02:02:39.944Z,19.30
2023-01-08T02:03:42.004Z,20.80
2023-01-08T02:04:43.990Z,23.63
2023-01-08T02:05:59.612Z,18.30
2023-01-08T02:07:22.800Z,23.67
2023-01-08T02:08:47.066Z,17.05
2023-01-08T02:10:03.677Z,22.65
2023-01-08T02:11:22.442Z,22.13
2023-01-08T02:12:35.922Z,19.58
2023-01-08T02:13:43.128Z,18.45
2023-01-08T02:15:03.760Z,20.55
2023-01-08T02:16:16.588Z,18.60
2023-01-08T02:17:26.700Z,21.02
2023-01-08T02:18:34.858Z,13.68
2023-01-08T02:19:54.090Z,22.27
2023-01-08T02:21:09.128Z,20.13
2023-01-08T02:22:29.257Z,17.45
2023-01-08T02:23:58.328Z,22.50
2023-01-08T02:25:29.546Z,23.10
2023-01-08T02:26:32.617Z,18.65
2023-01-08T02:27:36.225Z,20.60
2023-01-08T02:28:53.340Z,20.10
2023-01-08T02:29:57.022Z,21.48
2023-01-08T02:30:59.598Z,21.95
2023-01-08T02:33:18.858Z,19.13
2023-01-08T02:34:20.635Z,21.08
2023-01-08T02:35:22.579Z,19.73
2023-01-08T02:36:26.791Z,19.70
2023-01-08T02:37:28.808Z,21.45
2023-01-08T02:38:31.905Z,19.67
2023-01-08T02:40:16.467Z,23.35
2023-01-08T02:41:23.493Z,18.58
2023-01-08T02:42:46.217Z,19.70
2023-01-08T02:43:52.011Z,21.90
2023-01-08T02:45:06.593Z,20.77
2023-01-08T02:46:14.685Z,20.30
2023-01-08T02:47:49.872Z,18.90
2023-01-08T02:48:58.456Z,21.52
2023-01-08T02:50:26.079Z,21.90
2023-01-08T02:51:51.742Z,19.70
2023-01-08T02:53:10.789Z,22.45
2023-01-08T02:54:17.763Z,19.38
2023-01-08T02:55:21.038Z,22.58
2023-01-08T02:56:26.872Z,19.15
2023-01-08T02:57:31.994Z,22.23
2023-01-08T02:58:37.289Z,19.23
2023-01-08T02:59:42.237Z,20.20
2023-01-08T03:00:46.852Z,20.92
2023-01-08T03:01:49.067Z,21.15
2023-01-08T03:02:55.261Z,18.90
2023-01-08T03:04:04.034Z,21.35
2023-01-08T03:05:14.513Z,20.20
2023-01-08T03:06:20.055Z,22.40
2023-01-08T03:07:22.200Z,21.40
2023-01-08T03:08:24.370Z,19.90
2023-01-08T03:09:26.722Z,18.25
2023-01-08T03:10:30.794Z,21.23
2023-01-08T03:11:40.415Z,21.33
2023-01-08T03:13:00.223Z,20.58
2023-01-08T03:14:15.722Z,22.40
2023-01-08T03:15:24.856Z,19.63
2023-01-08T03:16:34.179Z,23.48
2023-01-08T03:17:42.924Z,22.92
2023-01-08T03:18:51.338Z,19.45
2023-01-08T03:20:01.489Z,19.08
2023-01-08T03:21:05.859Z,17.67
2023-01-08T03:22:12.441Z,24.50
2023-01-08T03:23:16.317Z,20.10
2023-01-08T03:24:26.065Z,19.90
2023-01-08T03:25:30.260Z,19.42
2023-01-08T03:26:33.462Z,19.98
2023-01-08T03:27:40.196Z,18.20
2023-01-08T03:28:47.463Z,17.60
2023-01-08T03:29:53.120Z,17.65
2023-01-08T03:30:55.156Z,20.00
2023-01-08T03:32:01.592Z,22.60
2023-01-08T03:33:05.781Z,20.10
2023-01-08T03:34:08.644Z,21.77
2023-01-08T03:35:14.115Z,22.05
2023-01-08T03:36:20.056Z,20.38
2023-01-08T03:37:30.330Z,23.65
2023-01-08T03:38:36.801Z,18.52
2023-01-08T03:39:54.314Z,18.80
2023-01-08T03:41:08.876Z,20.55
2023-01-08T03:42:13.292Z,17.35
2023-01-08T03:43:15.390Z,21.95
2023-01-08T03:44:17.315Z,21.77
2023-01-08T03:45:21.853Z,22.25
2023-01-08T03:46:33.692Z,18.88
2023-01-08T03:47:38.208Z,21.02
2023-01-08T03:48:41.673Z,25.40
2023-01-08T03:49:44.820Z,25.80
2023-01-08T03:50:47.042Z,25.25
2023-01-08T03:51:49.205Z,22.45
2023-01-08T03:52:51.079Z,25.60
2023-01-08T03:53:58.878Z,21.75
2023-01-08T03:55:01.345Z,22.45
2023-01-08T03:56:03.585Z,21.38
2023-01-08T03:57:05.540Z,23.45
2023-01-08T03:58:07.879Z,18.92
2023-01-08T03:59:11.478Z,22.05
2023-01-08T04:00:14.273Z,25.02
2023-01-08T04:01:16.216Z,18.27
2023-01-08T04:02:18.314Z,19.88
2023-01-08T04:03:20.281Z,23.05
2023-01-08T04:04:22.122Z,25.25
2023-01-08T04:05:24.094Z,21.50
2023-01-08T04:06:25.977Z,21.80
2023-01-08T04:07:28.023Z,20.38
2023-01-08T04:08:29.935Z,18.77
2023-01-08T04:09:31.821Z,23.88
2023-01-08T04:10:33.947Z,22.20
2023-01-08T04:11:36.141Z,19.48
2023-01-08T04:12:38.031Z,20.10
2023-01-08T04:13:40.177Z,21.00
2023-01-08T04:14:41.941Z,20.80
2023-01-08T04:15:52.567Z,22.23
2023-01-08T04:16:54.317Z,22.15
2023-01-08T04:17:56.232Z,20.80
2023-01-08T04:18:58.318Z,20.92
2023-01-08T04:20:00.083Z,18.48
2023-01-08T04:21:01.940Z,21.85
2023-01-08T04:22:03.722Z,24.23
2023-01-08T04:23:05.419Z,19.48
2023-01-08T04:24:08.483Z,20.83
2023-01-08T04:25:10.387Z,20.85
2023-01-08T04:26:12.252Z,18.65
2023-01-08T04:27:14.135Z,21.88
2023-01-08T04:28:15.872Z,19.33
2023-01-08T04:29:17.756Z,21.92
2023-01-08T04:30:19.695Z,17.85
2023-01-08T04:31:21.922Z,21.17
2023-01-08T04:32:23.805Z,21.95
2023-01-08T04:33:25.668Z,20.45
2023-01-08T04:34:27.375Z,20.80
2023-01-08T04:35:29.310Z,28.30
2023-01-08T04:36:31.437Z,22.77
2023-01-08T04:37:33.284Z,20.27
2023-01-08T04:38:35.165Z,19.30
2023-01-08T04:39:37.050Z,24.42
2023-01-08T04:40:38.930Z,17.83
2023-01-08T04:41:40.943Z,23.75
2023-01-08T04:42:42.776Z,21.35
2023-01-08T04:43:44.813Z,23.05
2023-01-08T04:44:46.655Z,20.90
2023-01-08T04:45:48.540Z,20.42
2023-01-08T04:46:50.387Z,25.67
2023-01-08T04:47:59.470Z,19.45
2023-01-08T04:49:01.395Z,18.27
2023-01-08T04:50:03.474Z,21.38
2023-01-08T04:51:05.754Z,24.73
2023-01-08T04:52:07.625Z,21.40
2023-01-08T04:53:09.507Z,21.88
2023-01-08T04:54:11.393Z,21.95
2023-01-08T04:55:13.237Z,23.98
2023-01-08T04:56:15.219Z,22.48
2023-01-08T04:57:17.090Z,25.98
2023-01-08T04:58:19.143Z,20.65
2023-01-08T04:59:21.021Z,23.92
2023-01-08T05:00:22.808Z,18.50
2023-01-08T05:01:27.270Z,24.00
2023-01-08T05:02:29.756Z,20.55
2023-01-08T05:03:31.981Z,19.42
2023-01-08T05:04:33.820Z,23.52
2023-01-08T05:05:35.617Z,19.73
2023-01-08T05:06:37.540Z,22.83
2023-01-08T05:07:39.432Z,24.95
2023-01-08T05:08:41.289Z,24.67
2023-01-08T05:09:43.029Z,20.42
2023-01-08T05:10:44.756Z,19.73
2023-01-08T05:11:46.525Z,22.83
2023-01-08T05:12:48.420Z,24.65
2023-01-08T05:13:51.870Z,21.77
2023-01-08T05:14:53.623Z,19.45
2023-01-08T05:15:58.737Z,22.17
2023-01-08T05:17:00.683Z,22.40
2023-01-08T05:18:05.642Z,20.65
2023-01-08T05:19:07.608Z,20.25
2023-01-08T05:20:09.751Z,23.08
2023-01-08T05:21:13.391Z,20.05
2023-01-08T05:22:15.316Z,24.15
2023-01-08T05:23:17.306Z,22.58
2023-01-08T05:24:19.202Z,23.42
2023-01-08T05:25:21.402Z,26.02
2023-01-08T05:26:23.251Z,24.42
2023-01-08T05:27:25.402Z,20.48
2023-01-08T05:28:28.427Z,17.90
2023-01-08T05:29:30.297Z,19.75
2023-01-08T05:30:32.493Z,21.70
2023-01-08T05:31:34.415Z,20.75
2023-01-08T05:32:36.453Z,23.58
2023-01-08T05:33:39.116Z,19.10
2023-01-08T05:34:40.996Z,19.98
2023-01-08T05:35:42.754Z,18.30
2023-01-08T05:36:44.666Z,18.50
2023-01-08T05:37:46.405Z,17.85
2023-01-08T05:38:48.309Z,19.98
2023-01-08T05:39:50.148Z,20.58
2023-01-08T05:40:53.099Z,21.42
2023-01-08T05:41:54.995Z,21.55
2023-01-08T05:42:59.734Z,23.35
2023-01-08T05:44:01.493Z,20.77
2023-01-08T05:45:05.646Z,24.25
2023-01-08T05:46:07.718Z,21.48
2023-01-08T05:47:09.489Z,18.95
2023-01-08T05:48:11.264Z,24.42
2023-01-08T05:49:13.048Z,22.30
2023-01-08T05:50:15.012Z,20.25
2023-01-08T05:51:17.541Z,18.60
2023-01-08T05:52:19.430Z,19.33
2023-01-08T05:53:21.454Z,20.25
2023-01-08T05:54:23.323Z,23.75
2023-01-08T05:55:25.398Z,19.55
2023-01-08T05:56:27.275Z,23.05
2023-01-08T05:57:29.186Z,21.88
2023-01-08T05:58:31.481Z,20.75
2023-01-08T05:59:33.237Z,22.38
2023-01-08T06:00:35.648Z,18.08
2023-01-08T06:01:37.768Z,20.85
2023-01-08T06:02:39.922Z,22.30
2023-01-08T06:03:42.195Z,22.58
2023-01-08T06:04:44.291Z,22.05
2023-01-08T06:05:46.164Z,23.38
2023-01-08T06:06:48.053Z,22.77
2023-01-08T06:07:49.847Z,24.48
2023-01-08T06:08:51.737Z,20.15
2023-01-08T06:09:53.606Z,24.90
2023-01-08T06:10:58.657Z,26.10
2023-01-08T06:12:00.504Z,23.60
2023-01-08T06:13:02.361Z,25.17
2023-01-08T06:14:04.186Z,21.67
2023-01-08T06:15:06.713Z,25.08
2023-01-08T06:16:08.822Z,21.45
2023-01-08T06:17:10.795Z,23.55
2023-01-08T06:18:12.629Z,24.58
2023-01-08T06:19:14.478Z,21.80
2023-01-08T06:20:16.439Z,27.65
2023-01-08T06:21:18.418Z,26.95
2023-01-08T06:22:20.292Z,25.08
2023-01-08T06:23:22.201Z,26.60
2023-01-08T06:24:23.947Z,27.48
2023-01-08T06:25:25.893Z,23.38
2023-01-08T06:26:27.835Z,23.27
2023-01-08T06:27:29.820Z,23.55
2023-01-08T06:28:32.212Z,26.42
2023-01-08T06:29:34.025Z,28.50
2023-01-08T06:30:36.245Z,25.00
2023-01-08T06:31:38.017Z,22.02
2023-01-08T06:32:39.945Z,24.33
2023-01-08T06:33:41.655Z,27.45
2023-01-08T06:34:43.569Z,26.27
2023-01-08T06:35:45.495Z,25.70
2023-01-08T06:36:47.418Z,26.13
2023-01-08T06:37:49.552Z,26.52
2023-01-08T06:38:51.537Z,28.05
2023-01-08T06:39:53.484Z,25.25
2023-01-08T06:40:55.705Z,27.80
2023-01-08T06:41:57.570Z,25.10
2023-01-08T06:43:03.622Z,23.30
2023-01-08T06:44:05.510Z,24.05
2023-01-08T06:45:08.149Z,25.27
2023-01-08T06:46:10.523Z,24.27
2023-01-08T06:47:12.406Z,29.20
2023-01-08T06:48:14.240Z,27.20
2023-01-08T06:49:17.581Z,23.65
2023-01-08T06:50:19.329Z,25.90
2023-01-08T06:51:21.197Z,24.15
2023-01-08T06:52:23.121Z,22.25
2023-01-08T06:53:25.383Z,25.52
2023-01-08T06:54:27.344Z,27.25
2023-01-08T06:55:29.296Z,26.45
2023-01-08T06:56:31.014Z,27.08
2023-01-08T06:57:32.948Z,26.55
2023-01-08T06:58:35.047Z,22.98
2023-01-08T06:59:36.940Z,23.88
2023-01-08T07:00:39.779Z,28.80
2023-01-08T07:01:41.699Z,27.48
2023-01-08T07:02:43.806Z,27.95
2023-01-08T07:03:45.895Z,24.83
2023-01-08T07:04:48.887Z,25.05
2023-01-08T07:05:51.244Z,25.58
2023-01-08T07:06:52.984Z,22.58
2023-01-08T07:07:55.406Z,26.42
2023-01-08T07:08:57.386Z,24.88
2023-01-08T07:09:59.131Z,26.38
2023-01-08T07:11:04.265Z,28.17
2023-01-08T07:12:06.699Z,28.95
2023-01-08T07:13:09.282Z,27.98
2023-01-08T07:14:11.652Z,28.00
2023-01-08T07:15:13.669Z,27.85
2023-01-08T07:16:16.363Z,26.35
2023-01-08T07:17:18.267Z,28.17
2023-01-08T07:18:20.133Z,26.77
2023-01-08T07:19:22.039Z,29.92
2023-01-08T07:20:23.959Z,26.10
2023-01-08T07:21:26.030Z,28.15
2023-01-08T07:22:28.358Z,26.73
2023-01-08T07:23:30.743Z,24.45
2023-01-08T07:24:32.573Z,24.42
2023-01-08T07:25:34.408Z,26.00
2023-01-08T07:26:36.951Z,31.45
2023-01-08T07:27:38.850Z,27.85
2023-01-08T07:28:41.829Z,28.02
2023-01-08T07:29:43.706Z,24.08
2023-01-08T07:30:45.857Z,29.48
2023-01-08T07:31:47.713Z,29.40
2023-01-08T07:32:49.755Z,26.35
2023-01-08T07:33:51.722Z,33.75
2023-01-08T07:34:54.817Z,24.80
2023-01-08T07:35:57.059Z,27.92
2023-01-08T07:36:58.844Z,32.58
2023-01-08T07:38:00.693Z,30.13
2023-01-08T07:39:02.658Z,37.35
2023-01-08T07:40:05.231Z,33.47
2023-01-08T07:41:06.995Z,31.73
2023-01-08T07:42:08.958Z,30.58
2023-01-08T07:43:12.791Z,32.42
2023-01-08T07:44:14.699Z,32.25
2023-01-08T07:45:16.464Z,29.20
2023-01-08T07:46:18.506Z,31.10
2023-01-08T07:47:20.652Z,29.55
2023-01-08T07:48:22.590Z,30.27
2023-01-08T07:49:24.304Z,31.67
2023-01-08T07:50:27.566Z,27.40
2023-01-08T07:51:30.056Z,31.73
2023-01-08T07:52:32.239Z,29.52
2023-01-08T07:53:34.902Z,32.25
2023-01-08T07:54:36.763Z,25.15
2023-01-08T07:55:39.057Z,28.80
2023-01-08T07:56:40.857Z,32.22
2023-01-08T07:57:42.921Z,28.35
2023-01-08T07:58:44.913Z,29.92
2023-01-08T07:59:46.653Z,30.05
2023-01-08T08:00:48.776Z,29.77
2023-01-08T08:01:50.619Z,34.22
2023-01-08T08:02:52.779Z,42.00
2023-01-08T08:03:54.858Z,34.40
2023-01-08T08:04:56.795Z,27.00
2023-01-08T08:06:01.365Z,30.67
2023-01-08T08:07:03.335Z,27.80
2023-01-08T08:08:09.584Z,30.48
2023-01-08T08:09:11.683Z,32.35
2023-01-08T08:10:13.641Z,28.92
2023-01-08T08:11:15.986Z,30.38
2023-01-08T08:12:18.170Z,28.02
2023-01-08T08:13:19.978Z,33.78
2023-01-08T08:14:21.852Z,28.40
2023-01-08T08:15:23.722Z,27.67
2023-01-08T08:16:25.696Z,29.42
2023-01-08T08:17:27.611Z,33.53
2023-01-08T08:18:29.575Z,30.67
2023-01-08T08:19:31.443Z,32.97
2023-01-08T08:20:33.889Z,30.40
2023-01-08T08:21:35.812Z,26.63
2023-01-08T08:22:37.845Z,30.45
2023-01-08T08:23:39.672Z,29.17
2023-01-08T08:24:41.557Z,28.88
2023-01-08T08:25:43.554Z,30.15
2023-01-08T08:26:45.299Z,29.35
2023-01-08T08:27:47.064Z,30.33
2023-01-08T08:28:49.091Z,33.35
2023-01-08T08:29:51.161Z,27.55
2023-01-08T08:30:53.079Z,30.38
2023-01-08T08:31:55.183Z,30.17
2023-01-08T08:33:00.199Z,34.72
2023-01-08T08:34:02.215Z,32.35
2023-01-08T08:35:05.623Z,28.00
2023-01-08T08:36:08.463Z,33.05
2023-01-08T08:37:10.359Z,29.83
2023-01-08T08:38:12.199Z,29.55
2023-01-08T08:39:14.420Z,29.70
2023-01-08T08:40:16.717Z,31.27
2023-01-08T08:41:18.761Z,32.45
2023-01-08T08:42:20.504Z,35.25
2023-01-08T08:43:22.262Z,34.60
2023-01-08T08:44:24.153Z,37.53
2023-01-08T08:45:27.105Z,37.85
2023-01-08T08:46:29.808Z,36.17
2023-01-08T08:47:31.763Z,31.77
2023-01-08T08:48:33.757Z,31.38
2023-01-08T08:49:36.621Z,32.35
2023-01-08T08:50:38.854Z,28.60
2023-01-08T08:51:40.558Z,44.88
2023-01-08T08:52:44.955Z,32.33
2023-01-08T08:53:46.899Z,33.03
2023-01-08T08:54:48.825Z,31.75
2023-01-08T08:55:50.571Z,29.10
2023-01-08T08:56:52.426Z,31.88
2023-01-08T08:57:54.365Z,30.98
2023-01-08T08:58:58.385Z,32.25
2023-01-08T09:00:01.251Z,42.78
2023-01-08T09:01:04.462Z,31.98
2023-01-08T09:02:06.845Z,34.28
2023-01-08T09:03:14.845Z,34.13
2023-01-08T09:04:16.961Z,33.45
2023-01-08T09:05:18.699Z,36.08
2023-01-08T09:06:20.534Z,29.10
2023-01-08T09:07:22.716Z,29.17
2023-01-08T09:08:24.649Z,43.17
2023-01-08T09:09:27.705Z,31.42
2023-01-08T09:10:29.438Z,36.45
2023-01-08T09:11:32.037Z,40.95
2023-01-08T09:12:34.169Z,42.70
2023-01-08T09:13:37.885Z,37.67
2023-01-08T09:14:39.811Z,33.75
2023-01-08T09:15:41.679Z,32.83
2023-01-08T09:16:43.566Z,37.63
2023-01-08T09:17:45.456Z,54.92
2023-01-08T09:18:49.039Z,35.72
2023-01-08T09:19:50.960Z,43.40
2023-01-08T09:20:53.108Z,56.47
2023-01-08T09:21:55.018Z,43.88
2023-01-08T09:22:59.680Z,36.60
2023-01-08T09:24:01.587Z,35.70
2023-01-08T09:25:03.658Z,38.88
2023-01-08T09:26:06.404Z,39.13
2023-01-08T09:27:10.936Z,41.15
2023-01-08T09:28:13.321Z,47.00
2023-01-08T09:29:15.156Z,51.38
2023-01-08T09:30:17.031Z,63.33
2023-01-08T09:31:18.851Z,43.50
2023-01-08T09:32:20.835Z,38.33
2023-01-08T09:33:22.701Z,39.17
2023-01-08T09:34:24.629Z,47.35
2023-01-08T09:35:27.243Z,37.72
2023-01-08T09:36:30.220Z,44.17
2023-01-08T09:37:32.174Z,42.53
2023-01-08T09:38:34.153Z,43.22
2023-01-08T09:39:37.035Z,37.28
2023-01-08T09:40:48.094Z,41.95
2023-01-08T09:41:51.488Z,40.28
2023-01-08T09:43:02.062Z,49.15
2023-01-08T09:44:06.573Z,41.22
2023-01-08T09:45:23.016Z,38.50
2023-01-08T09:46:27.758Z,35.70
2023-01-08T09:47:36.631Z,42.72
2023-01-08T09:48:40.478Z,44.33
2023-01-08T09:49:45.725Z,40.95
2023-01-08T09:50:48.405Z,37.72
2023-01-08T09:51:50.273Z,40.63
2023-01-08T09:52:52.477Z,35.85
2023-01-08T09:53:56.406Z,40.75
2023-01-08T09:54:58.816Z,45.45
2023-01-08T09:56:10.914Z,37.85
2023-01-08T09:57:16.604Z,38.08
2023-01-08T09:58:30.808Z,37.38
2023-01-08T09:59:33.132Z,39.53
2023-01-08T10:00:35.184Z,29.42
2023-01-08T10:01:38.909Z,38.15
2023-01-08T10:02:41.634Z,35.38
2023-01-08T10:03:48.978Z,38.28
2023-01-08T10:04:58.645Z,43.15
2023-01-08T10:06:00.536Z,33.90
2023-01-08T10:07:21.750Z,36.20
2023-01-08T10:08:23.644Z,37.22
2023-01-08T10:09:31.537Z,35.08
2023-01-08T10:10:34.062Z,32.65
2023-01-08T10:11:42.464Z,36.28
2023-01-08T10:12:44.981Z,37.90
2023-01-08T10:13:52.365Z,33.30
2023-01-08T10:14:57.772Z,33.67
2023-01-08T10:16:03.153Z,36.20
2023-01-08T10:17:40.661Z,33.03
2023-01-08T10:18:43.776Z,35.05
2023-01-08T10:19:45.892Z,34.20
2023-01-08T10:20:47.781Z,30.98
2023-01-08T10:21:50.288Z,37.75
2023-01-08T10:22:57.159Z,31.98
2023-01-08T10:23:59.445Z,35.78
2023-01-08T10:25:08.635Z,43.78
2023-01-08T10:26:12.533Z,38.42
2023-01-08T10:27:23.539Z,33.28
2023-01-08T10:28:30.534Z,43.28
2023-01-08T10:29:32.376Z,35.35
2023-01-08T10:30:37.981Z,37.50
2023-01-08T10:31:46.498Z,35.72
2023-01-08T10:32:54.804Z,37.90
2023-01-08T10:33:57.371Z,35.17
2023-01-08T10:35:03.170Z,35.33
2023-01-08T10:36:09.373Z,35.83
2023-01-08T10:37:22.967Z,37.53
2023-01-08T10:38:56.835Z,37.65
2023-01-08T10:40:23.613Z,40.03
2023-01-08T10:41:27.015Z,35.25
2023-01-08T10:42:33.957Z,32.15
2023-01-08T10:44:02.020Z,32.72
2023-01-08T10:45:07.957Z,38.38
2023-01-08T10:46:23.491Z,40.35
2023-01-08T10:47:28.577Z,38.75
2023-01-08T10:48:44.755Z,34.97
2023-01-08T10:49:46.959Z,36.88
2023-01-08T10:50:48.873Z,31.88
2023-01-08T10:51:55.792Z,36.78
2023-01-08T10:53:19.878Z,39.25
2023-01-08T10:54:36.218Z,38.03
2023-01-08T10:55:39.689Z,36.38
2023-01-08T10:56:44.130Z,36.58
2023-01-08T10:58:03.473Z,32.30
2023-01-08T10:59:05.654Z,32.33
2023-01-08T11:00:29.633Z,36.20
2023-01-08T11:01:33.701Z,35.45
2023-01-08T11:02:39.373Z,32.25
2023-01-08T11:03:42.366Z,38.13
2023-01-08T11:04:48.560Z,38.58
2023-01-08T11:05:51.034Z,36.58
2023-01-08T11:06:59.641Z,34.97
2023-01-08T11:08:05.924Z,40.97
2023-01-08T11:09:22.349Z,34.88
2023-01-08T11:10:25.803Z,39.08
2023-01-08T11:11:35.481Z,34.22
2023-01-08T11:12:40.942Z,34.17
2023-01-08T11:14:13.237Z,32.22
2023-01-08T11:15:31.228Z,36.35
2023-01-08T11:16:40.103Z,35.75
2023-01-08T11:17:42.297Z,32.67
2023-01-08T11:18:48.525Z,37.58
2023-01-08T11:19:50.474Z,34.63
2023-01-08T11:20:54.527Z,35.00
2023-01-08T11:21:59.098Z,34.25
2023-01-08T11:23:17.490Z,33.35
2023-01-08T11:24:24.960Z,39.03
2023-01-08T11:25:30.449Z,37.25
2023-01-08T11:26:35.004Z,34.80
2023-01-08T11:27:42.043Z,32.22
2023-01-08T11:29:12.712Z,34.35
2023-01-08T11:30:21.497Z,29.85
2023-01-08T11:31:46.023Z,37.08
2023-01-08T11:33:18.530Z,36.05
2023-01-08T11:34:31.753Z,33.28
2023-01-08T11:35:41.004Z,31.73
2023-01-08T11:37:02.524Z,33.83
2023-01-08T11:38:08.488Z,31.35
2023-01-08T11:39:10.524Z,39.67
2023-01-08T11:40:17.356Z,35.63
2023-01-08T11:42:05.209Z,37.30
2023-01-08T11:43:07.306Z,29.38
2023-01-08T11:44:08.988Z,33.53
2023-01-08T11:45:28.767Z,35.17
2023-01-08T11:47:00.190Z,30.55
2023-01-08T11:48:01.868Z,33.55
2023-01-08T11:49:36.849Z,33.97
2023-01-08T11:50:44.556Z,30.58
2023-01-08T11:52:03.758Z,33.92
2023-01-08T11:53:42.994Z,33.05
2023-01-08T11:55:13.002Z,33.05
2023-01-08T11:56:56.350Z,37.10
2023-01-08T11:58:03.888Z,32.55
2023-01-08T11:59:19.034Z,38.17
2023-01-08T12:00:38.963Z,35.38
2023-01-08T12:01:52.643Z,36.38
2023-01-08T12:03:01.850Z,33.08
2023-01-08T12:04:34.511Z,36.35
2023-01-08T12:05:50.034Z,35.00
2023-01-08T12:07:12.977Z,38.47
2023-01-08T12:08:20.601Z,49.60
2023-01-08T12:09:46.401Z,47.28
2023-01-08T12:11:16.646Z,36.45
2023-01-08T12:12:55.369Z,48.97
2023-01-08T12:14:21.244Z,37.28
2023-01-08T12:15:29.353Z,40.22
2023-01-08T12:17:06.827Z,47.60
2023-01-08T12:18:19.663Z,56.92
2023-01-08T12:19:56.892Z,54.35
2023-01-08T12:21:09.899Z,46.78
2023-01-08T12:22:31.490Z,45.72
2023-01-08T12:24:16.586Z,49.92
2023-01-08T12:25:26.349Z,38.97
2023-01-08T12:26:58.549Z,45.30
2023-01-08T12:28:15.706Z,38.47
2023-01-08T12:29:30.100Z,32.70
2023-01-08T12:30:52.583Z,34.75
2023-01-08T12:32:05.065Z,37.25
2023-01-08T12:34:00.653Z,33.75
2023-01-08T12:35:26.078Z,36.65
2023-01-08T12:36:36.191Z,32.70
2023-01-08T12:37:57.484Z,33.47
2023-01-08T12:39:06.247Z,31.27
2023-01-08T12:40:33.455Z,35.67
2023-01-08T12:41:36.307Z,38.42
2023-01-08T12:42:47.138Z,31.65
2023-01-08T12:44:02.231Z,33.70
2023-01-08T12:45:08.623Z,33.17
2023-01-08T12:46:14.680Z,35.42
2023-01-08T12:47:22.254Z,32.03
2023-01-08T12:48:27.783Z,37.47
2023-01-08T12:49:41.703Z,31.40
2023-01-08T12:50:59.534Z,33.15
2023-01-08T12:52:09.175Z,36.50
2023-01-08T12:53:32.585Z,33.53
2023-01-08T12:54:53.305Z,35.05
2023-01-08T12:56:20.960Z,33.95
2023-01-08T12:57:31.082Z,35.90
2023-01-08T12:58:43.139Z,31.40
2023-01-08T13:00:04.297Z,31.40
2023-01-08T13:01:37.486Z,34.67
2023-01-08T13:02:59.515Z,31.67
2023-01-08T13:04:04.283Z,32.03
2023-01-08T13:05:12.223Z,31.80
2023-01-08T13:06:18.596Z,33.63
2023-01-08T13:07:31.765Z,33.35
2023-01-08T13:08:34.684Z,33.08
2023-01-08T13:09:36.620Z,36.00
2023-01-08T13:10:50.514Z,32.03
2023-01-08T13:11:55.209Z,32.08
2023-01-08T13:12:58.107Z,35.90
2023-01-08T13:14:05.599Z,28.00
2023-01-08T13:15:08.699Z,30.25
2023-01-08T13:16:17.014Z,32.35
2023-01-08T13:17:22.388Z,33.00
2023-01-08T13:18:24.350Z,29.55
2023-01-08T13:19:29.131Z,29.08
2023-01-08T13:20:32.471Z,34.08
2023-01-08T13:21:36.161Z,30.50
2023-01-08T13:22:38.357Z,29.25
2023-01-08T13:23:40.398Z,31.45
2023-01-08T13:24:43.509Z,28.67
2023-01-08T13:25:53.801Z,31.38
2023-01-08T13:27:18.778Z,31.25
2023-01-08T13:28:42.621Z,28.25
2023-01-08T13:29:49.557Z,28.10
2023-01-08T13:30:52.052Z,30.50
2023-01-08T13:31:54.079Z,29.30
2023-01-08T13:32:55.930Z,28.30
2023-01-08T13:33:57.672Z,29.33
2023-01-08T13:35:17.539Z,30.05
2023-01-08T13:36:22.287Z,29.75
2023-01-08T13:37:27.765Z,30.95
2023-01-08T13:38:29.903Z,31.15
2023-01-08T13:39:37.387Z,37.72
2023-01-08T13:40:44.891Z,35.30
2023-01-08T13:42:02.697Z,31.35
2023-01-08T13:43:13.486Z,30.73
2023-01-08T13:44:34.535Z,34.33
2023-01-08T13:45:36.865Z,30.98
2023-01-08T13:46:41.180Z,31.33
2023-01-08T13:47:44.018Z,26.75
2023-01-08T13:49:00.800Z,29.45
2023-01-08T13:50:17.553Z,28.60
2023-01-08T13:51:40.707Z,28.70
2023-01-08T13:52:45.279Z,31.17
2023-01-08T13:53:47.167Z,33.72
2023-01-08T13:54:49.512Z,29.50
2023-01-08T13:56:02.510Z,31.58
2023-01-08T13:57:16.369Z,30.08
2023-01-08T13:58:26.398Z,29.10
2023-01-08T13:59:47.914Z,32.70
2023-01-08T14:00:52.499Z,30.60
2023-01-08T14:01:56.099Z,26.27
2023-01-08T14:02:58.214Z,30.55
2023-01-08T14:04:00.152Z,29.92
2023-01-08T14:05:03.230Z,29.58
2023-01-08T14:06:12.029Z,27.80
2023-01-08T14:07:14.909Z,31.83
2023-01-08T14:08:24.803Z,34.60
2023-01-08T14:09:26.541Z,29.42
2023-01-08T14:10:30.188Z,30.88
2023-01-08T14:11:46.701Z,32.72
2023-01-08T14:12:49.854Z,34.42
2023-01-08T14:13:52.227Z,32.55
2023-01-08T14:14:58.986Z,33.03
2023-01-08T14:16:05.853Z,27.00
2023-01-08T14:17:16.614Z,31.23
2023-01-08T14:18:19.409Z,33.38
2023-01-08T14:19:24.392Z,35.67
2023-01-08T14:20:39.153Z,36.08
2023-01-08T14:21:41.184Z,28.98
2023-01-08T14:22:44.428Z,31.25
2023-01-08T14:23:50.312Z,32.15
2023-01-08T14:24:59.641Z,32.72
2023-01-08T14:26:06.747Z,35.28
2023-01-08T14:27:21.074Z,32.08
2023-01-08T14:28:23.711Z,34.83
2023-01-08T14:29:28.279Z,37.53
2023-01-08T14:30:30.609Z,31.80
2023-01-08T14:31:32.389Z,33.42
2023-01-08T14:32:34.138Z,34.20
2023-01-08T14:33:37.923Z,28.75
2023-01-08T14:34:41.787Z,34.38
2023-01-08T14:35:44.024Z,30.35
2023-01-08T14:36:46.706Z,31.83
2023-01-08T14:37:48.633Z,30.48
2023-01-08T14:38:51.362Z,33.00
2023-01-08T14:39:54.966Z,35.25
2023-01-08T14:41:06.970Z,38.83
2023-01-08T14:42:47.055Z,32.42
2023-01-08T14:43:50.350Z,33.00
2023-01-08T14:45:23.563Z,32.75
2023-01-08T14:46:27.844Z,31.40
2023-01-08T14:47:34.776Z,33.08
2023-01-08T14:48:43.099Z,29.40
2023-01-08T14:49:51.499Z,29.58
2023-01-08T14:51:03.254Z,31.00
2023-01-08T14:52:05.286Z,30.15
2023-01-08T14:53:20.641Z,30.90
2023-01-08T14:54:27.065Z,29.85
2023-01-08T14:55:29.957Z,28.25
2023-01-08T14:56:34.990Z,34.10
2023-01-08T14:57:37.176Z,33.35
2023-01-08T14:58:42.112Z,30.08
2023-01-08T14:59:53.951Z,28.75
2023-01-08T15:00:59.799Z,29.33
2023-01-08T15:02:04.249Z,29.67
2023-01-08T15:03:06.421Z,29.50
2023-01-08T15:04:20.353Z,28.48
2023-01-08T15:05:29.745Z,33.30
2023-01-08T15:06:32.949Z,33.65
2023-01-08T15:07:35.559Z,30.70
2023-01-08T15:08:40.501Z,33.92
2023-01-08T15:09:42.370Z,28.42
2023-01-08T15:10:44.445Z,32.15
2023-01-08T15:11:55.473Z,31.00
2023-01-08T15:13:00.957Z,36.72
2023-01-08T15:14:13.633Z,34.42
2023-01-08T15:15:24.884Z,33.58
2023-01-08T15:17:33.706Z,27.17
2023-01-08T15:19:05.412Z,31.17